sensor_id;sensor_type;location;lat;lon;timestamp;temperature;humidity
45315;SHT31;31051;51.540;5.852;2023-08-08T08:28:19;16.7;73.2
45315;SHT31;31051;51.540;5.852;2023-08-08T08:41:08;17.3;69.0
45315;SHT31;31051;51.540;5.852;2023-08-08T08:54:07;18.0;66.4
45315;SHT31;31051;51.540;5.852;2023-08-08T09:07:07;17.9;66.3
45315;SHT31;31051;51.540;5.852;2023-08-08T09:20:06;17.7;67.2
45315;SHT31;31051;51.540;5.852;2023-08-08T09:33:06;17.4;68.5
45315;SHT31;31051;51.540;5.852;2023-08-08T09:46:05;17.5;68.3
45315;SHT31;31051;51.540;5.852;2023-08-08T09:59:04;17.3;67.0
45315;SHT31;31051;51.540;5.852;2023-08-08T10:12:03;17.7;65.7
45315;SHT31;31051;51.540;5.852;2023-08-08T10:24:52;17.8;65.7
45315;SHT31;31051;51.540;5.852;2023-08-08T10:37:52;18.3;63.9
45315;SHT31;31051;51.540;5.852;2023-08-08T10:50:50;18.2;64.1
45315;SHT31;31051;51.540;5.852;2023-08-08T11:03:39;18.2;61.7
45315;SHT31;31051;51.540;5.852;2023-08-08T11:16:39;18.3;62.8
45315;SHT31;31051;51.540;5.852;2023-08-08T11:29:38;18.6;63.3
45315;SHT31;31051;51.540;5.852;2023-08-08T12:08:36;18.3;62.8
45315;SHT31;31051;51.540;5.852;2023-08-08T12:21:36;18.7;64.3
45315;SHT31;31051;51.540;5.852;2023-08-08T12:34:35;17.7;65.5
45315;SHT31;31051;51.540;5.852;2023-08-08T12:47:35;18.6;57.9
45315;SHT31;31051;51.540;5.852;2023-08-08T13:00:34;18.9;61.2
45315;SHT31;31051;51.540;5.852;2023-08-08T13:13:34;19.7;58.6
45315;SHT31;31051;51.540;5.852;2023-08-08T13:26:33;20.2;53.1
45315;SHT31;31051;51.540;5.852;2023-08-08T13:39:32;20.4;53.3
45315;SHT31;31051;51.540;5.852;2023-08-08T14:05:20;19.3;57.2
45315;SHT31;31051;51.540;5.852;2023-08-08T14:18:20;19.5;53.8
45315;SHT31;31051;51.540;5.852;2023-08-08T14:31:18;20.2;53.1
45315;SHT31;31051;51.540;5.852;2023-08-08T14:44:07;20.2;53.5
45315;SHT31;31051;51.540;5.852;2023-08-08T14:56:56;20.3;53.3
45315;SHT31;31051;51.540;5.852;2023-08-08T15:09:54;20.3;52.7
45315;SHT31;31051;51.540;5.852;2023-08-08T15:22:44;19.7;54.3
45315;SHT31;31051;51.540;5.852;2023-08-08T15:35:42;19.6;57.5
45315;SHT31;31051;51.540;5.852;2023-08-08T15:48:31;19.4;58.1
45315;SHT31;31051;51.540;5.852;2023-08-08T16:01:31;19.4;57.6
45315;SHT31;31051;51.540;5.852;2023-08-08T16:14:29;19.2;59.0
45315;SHT31;31051;51.540;5.852;2023-08-08T16:27:18;18.6;62.4
45315;SHT31;31051;51.540;5.852;2023-08-08T16:40:07;18.3;65.3
45315;SHT31;31051;51.540;5.852;2023-08-08T16:53:06;18.3;64.9
45315;SHT31;31051;51.540;5.852;2023-08-08T17:06:06;18.1;66.5
45315;SHT31;31051;51.540;5.852;2023-08-08T17:19:05;17.9;66.3
45315;SHT31;31051;51.540;5.852;2023-08-08T17:32:05;17.5;68.9
45315;SHT31;31051;51.540;5.852;2023-08-08T17:45:04;17.2;69.6
45315;SHT31;31051;51.540;5.852;2023-08-08T17:58:03;16.5;69.7
45315;SHT31;31051;51.540;5.852;2023-08-08T18:11:02;15.8;73.0
45315;SHT31;31051;51.540;5.852;2023-08-08T18:23:51;15.5;74.1
45315;SHT31;31051;51.540;5.852;2023-08-08T18:36:50;15.0;77.4
45315;SHT31;31051;51.540;5.852;2023-08-08T18:49:50;14.1;85.6
45315;SHT31;31051;51.540;5.852;2023-08-08T19:02:49;14.0;88.4
45315;SHT31;31051;51.540;5.852;2023-08-08T19:15:49;14.1;88.7
45315;SHT31;31051;51.540;5.852;2023-08-08T19:28:48;14.1;89.3
45315;SHT31;31051;51.540;5.852;2023-08-08T19:41:47;14.2;89.3
45315;SHT31;31051;51.540;5.852;2023-08-08T19:54:47;14.3;89.2
45315;SHT31;31051;51.540;5.852;2023-08-08T20:07:46;14.2;90.2
45315;SHT31;31051;51.540;5.852;2023-08-08T20:20:45;14.3;90.8
45315;SHT31;31051;51.540;5.852;2023-08-08T20:33:45;14.4;92.0
45315;SHT31;31051;51.540;5.852;2023-08-08T20:46:44;14.5;92.1
45315;SHT31;31051;51.540;5.852;2023-08-08T20:59:43;14.5;91.9
45315;SHT31;31051;51.540;5.852;2023-08-08T21:12:43;14.5;91.6
45315;SHT31;31051;51.540;5.852;2023-08-08T21:25:42;14.5;92.0
45315;SHT31;31051;51.540;5.852;2023-08-08T21:38:42;14.5;92.3
45315;SHT31;31051;51.540;5.852;2023-08-08T21:51:41;14.5;92.4
45315;SHT31;31051;51.540;5.852;2023-08-08T22:04:40;14.6;92.3
45315;SHT31;31051;51.540;5.852;2023-08-08T22:17:40;14.8;92.0
45315;SHT31;31051;51.540;5.852;2023-08-08T22:30:39;15.0;91.7
45315;SHT31;31051;51.540;5.852;2023-08-08T22:43:38;15.1;91.2
45315;SHT31;31051;51.540;5.852;2023-08-08T22:56:38;14.8;90.3
45315;SHT31;31051;51.540;5.852;2023-08-08T23:09:37;14.5;90.0
45315;SHT31;31051;51.540;5.852;2023-08-08T23:22:36;14.2;89.9
45315;SHT31;31051;51.540;5.852;2023-08-08T23:35:36;14.2;90.1
45315;SHT31;31051;51.540;5.852;2023-08-08T23:48:35;14.1;90.0
